Time;durP1;ratioP1;P1;durP2;ratioP2;P2;SDS_P1;SDS_P2;PMS_P1;PMS_P2;Temp;Humidity;BMP_temperature;BMP_pressure;BME280_temperature;BME280_humidity;BME280_pressure;Samples;Min_cycle;Max_cycle;Signal;HPM_P1;HPM_P2
2022/09/08 00:00:49;;;;;;;5.50;1.63;;;20.00;99.90;;;;;;4986634;28;20030;-75
2022/09/08 00:03:17;;;;;;;2.47;1.60;;;19.90;99.90;;;;;;4993225;28;20411;-75
2022/09/08 00:06:02;;;;;;;5.88;2.00;;;19.90;99.90;;;;;;4989882;28;20484;-74
2022/09/08 00:08:30;;;;;;;2.55;1.80;;;19.90;99.90;;;;;;4986723;28;20157;-74
2022/09/08 00:10:57;;;;;;;8.82;1.73;;;19.90;99.90;;;;;;4998704;28;20026;-75
2022/09/08 00:13:26;;;;;;;2.45;1.45;;;19.90;99.90;;;;;;5008745;28;20381;-75
2022/09/08 00:15:52;;;;;;;2.60;1.35;;;19.80;99.90;;;;;;4987601;28;20109;-75
2022/09/08 00:18:18;;;;;;;1.92;1.48;;;19.80;99.90;;;;;;4992763;28;20602;-75
2022/09/08 00:20:44;;;;;;;3.15;1.50;;;19.80;99.90;;;;;;4982525;28;20022;-75
2022/09/08 00:23:10;;;;;;;4.35;1.23;;;19.70;99.90;;;;;;4992893;28;20038;-75
2022/09/08 00:25:35;;;;;;;2.55;1.30;;;19.60;99.90;;;;;;4994452;28;20026;-75
2022/09/08 00:28:01;;;;;;;3.03;1.60;;;19.60;99.90;;;;;;4988552;28;20099;-74
2022/09/08 00:30:27;;;;;;;1.70;1.00;;;19.60;99.90;;;;;;4984558;28;20030;-74
2022/09/08 00:32:52;;;;;;;4.00;1.65;;;19.50;99.90;;;;;;4984736;28;20030;-75
2022/09/08 00:35:18;;;;;;;3.33;1.45;;;19.50;99.90;;;;;;5006939;28;20038;-75
2022/09/08 00:37:48;;;;;;;6.38;1.30;;;19.50;99.90;;;;;;4990372;28;20086;-74
2022/09/08 00:40:15;;;;;;;2.47;1.50;;;19.40;99.90;;;;;;4985082;28;20395;-74
2022/09/08 00:42:41;;;;;;;2.75;1.38;;;19.40;99.90;;;;;;4990452;28;20511;-74
2022/09/08 00:45:10;;;;;;;2.95;1.30;;;19.40;99.90;;;;;;4991888;28;20101;-75
2022/09/08 00:47:47;;;;;;;2.13;1.40;;;19.40;99.90;;;;;;4994322;28;20042;-75
2022/09/08 00:50:21;;;;;;;1.48;0.93;;;19.40;99.90;;;;;;4994292;28;20487;-75
2022/09/08 00:52:53;;;;;;;1.65;1.13;;;19.40;99.90;;;;;;4996958;28;20030;-75
2022/09/08 00:55:20;;;;;;;2.00;1.10;;;19.40;99.90;;;;;;4993016;28;20439;-74
2022/09/08 00:57:47;;;;;;;1.67;1.10;;;19.40;99.90;;;;;;4992294;28;20153;-72
2022/09/08 01:00:16;;;;;;;2.67;1.17;;;19.40;99.90;;;;;;4980478;28;20027;-74
2022/09/08 01:02:44;;;;;;;2.40;1.02;;;19.40;99.90;;;;;;4989553;28;20549;-75
2022/09/08 01:05:13;;;;;;;4.22;0.90;;;19.40;99.90;;;;;;4991139;28;20303;-75
2022/09/08 01:13:37;;;;;;;2.15;0.90;;;19.50;99.90;;;;;;4986220;28;20145;-75
2022/09/08 01:16:05;;;;;;;2.10;0.95;;;19.50;99.90;;;;;;4993462;28;20082;-74
2022/09/08 01:18:33;;;;;;;6.03;1.73;;;19.40;99.90;;;;;;4981879;28;20119;-74
2022/09/08 01:21:19;;;;;;;1.83;0.90;;;19.50;99.90;;;;;;4986782;28;20019;-74
2022/09/08 01:23:54;;;;;;;1.58;0.95;;;19.50;99.90;;;;;;4993002;28;20035;-75
2022/09/08 01:26:49;;;;;;;2.55;1.20;;;19.50;99.90;;;;;;5006443;28;20372;-75
2022/09/08 01:29:16;;;;;;;4.97;1.13;;;19.50;99.90;;;;;;4972504;28;20038;-75
2022/09/08 01:31:43;;;;;;;2.17;1.13;;;19.50;99.90;;;;;;4982943;28;20027;-75
2022/09/08 01:34:09;;;;;;;1.98;0.95;;;19.50;99.90;;;;;;4982268;28;20111;-75
2022/09/08 01:36:35;;;;;;;3.30;0.93;;;19.40;99.90;;;;;;4987823;28;20022;-75
2022/09/08 01:39:00;;;;;;;1.52;0.80;;;19.40;99.90;;;;;;4999494;28;20034;-75
2022/09/08 01:41:27;;;;;;;3.22;1.00;;;19.40;99.90;;;;;;4990389;28;20026;-74
2022/09/08 01:43:52;;;;;;;2.10;1.00;;;19.40;99.90;;;;;;4989201;28;20118;-74
2022/09/08 01:46:18;;;;;;;1.83;0.95;;;19.40;99.90;;;;;;4986734;28;20432;-73
2022/09/08 01:48:44;;;;;;;1.50;0.88;;;19.40;99.90;;;;;;4991859;28;20118;-73
2022/09/08 01:51:10;;;;;;;1.50;1.00;;;19.40;99.90;;;;;;4990582;28;20036;-74
2022/09/08 01:53:36;;;;;;;3.17;1.00;;;19.30;99.90;;;;;;4983269;28;20034;-74
2022/09/08 01:56:05;;;;;;;1.48;1.08;;;19.30;99.90;;;;;;4990038;28;20026;-74
2022/09/08 01:58:30;;;;;;;2.20;0.80;;;19.30;99.90;;;;;;4983956;28;20034;-73
2022/09/08 02:00:57;;;;;;;1.30;0.80;;;19.20;99.90;;;;;;4987338;28;20022;-74
2022/09/08 02:03:23;;;;;;;2.17;0.70;;;19.20;99.90;;;;;;4983054;28;20106;-74
2022/09/08 02:05:48;;;;;;;2.42;1.10;;;19.20;99.90;;;;;;4985271;28;20035;-74
2022/09/08 02:08:14;;;;;;;1.75;0.85;;;19.20;99.90;;;;;;4986673;28;20030;-74
2022/09/08 02:10:40;;;;;;;5.90;0.88;;;19.20;99.90;;;;;;4987770;28;20514;-74
2022/09/08 02:13:06;;;;;;;1.23;0.70;;;19.10;99.90;;;;;;4984391;28;20034;-74
2022/09/08 02:15:32;;;;;;;2.85;1.00;;;19.10;99.90;;;;;;4991216;28;20485;-72
2022/09/08 02:17:58;;;;;;;1.38;0.80;;;19.10;99.90;;;;;;4990467;28;20057;-75
2022/09/08 02:20:24;;;;;;;2.60;1.00;;;19.10;99.90;;;;;;4979602;28;20069;-74
2022/09/08 02:22:52;;;;;;;1.60;0.70;;;19.10;99.90;;;;;;5015242;23;20030;-74
2022/09/08 02:25:18;;;;;;;2.55;0.85;;;19.10;99.90;;;;;;5008870;28;20184;-74
2022/09/08 02:27:43;;;;;;;1.48;1.00;;;19.00;99.90;;;;;;5022478;28;20121;-75
2022/09/08 02:30:11;;;;;;;2.50;0.90;;;19.00;99.90;;;;;;5009275;28;20034;-74
2022/09/08 02:32:37;;;;;;;2.22;1.38;;;19.00;99.90;;;;;;5009965;28;20513;-73
2022/09/08 02:35:03;;;;;;;2.95;1.02;;;19.00;99.90;;;;;;4987848;28;20034;-74
2022/09/08 02:37:28;;;;;;;2.25;0.77;;;19.00;99.90;;;;;;5002440;28;20022;-73
2022/09/08 02:39:54;;;;;;;2.40;0.90;;;19.00;99.90;;;;;;5005043;28;20036;-73
2022/09/08 02:42:19;;;;;;;0.93;0.68;;;19.00;99.90;;;;;;4988561;28;20022;-74
2022/09/08 02:44:45;;;;;;;2.38;0.70;;;19.00;99.90;;;;;;4988935;28;20034;-75
2022/09/08 02:47:11;;;;;;;2.28;0.82;;;18.90;99.90;;;;;;4990533;28;20034;-75
2022/09/08 02:49:37;;;;;;;3.55;0.73;;;18.90;99.90;;;;;;4991576;28;20049;-74
2022/09/08 02:52:03;;;;;;;1.95;0.70;;;18.90;99.90;;;;;;4978092;28;20165;-75
2022/09/08 02:54:28;;;;;;;2.33;0.60;;;18.90;99.90;;;;;;4982653;28;20483;-74
2022/09/08 02:56:54;;;;;;;2.78;0.90;;;18.80;99.90;;;;;;4988233;28;20034;-74
2022/09/08 02:59:20;;;;;;;0.73;0.60;;;18.80;99.90;;;;;;4988712;28;20023;-75
2022/09/08 03:01:46;;;;;;;2.90;0.95;;;18.80;99.90;;;;;;4992907;28;20057;-75
2022/09/08 03:04:13;;;;;;;1.35;0.90;;;18.80;99.90;;;;;;4991125;28;20026;-75
2022/09/08 03:06:39;;;;;;;1.40;0.90;;;18.80;99.90;;;;;;4987562;28;20164;-74
2022/09/08 03:09:06;;;;;;;2.30;0.90;;;18.80;99.90;;;;;;4990933;28;20113;-75
2022/09/08 03:11:33;;;;;;;2.15;0.80;;;18.70;99.90;;;;;;5006422;28;20030;-74
2022/09/08 03:13:59;;;;;;;3.47;0.93;;;18.70;99.90;;;;;;4991311;28;20149;-74
2022/09/08 03:16:26;;;;;;;1.90;0.90;;;18.70;99.90;;;;;;4989886;28;20497;-74
2022/09/08 03:18:55;;;;;;;0.85;0.60;;;18.70;99.90;;;;;;5003002;28;20027;-75
2022/09/08 03:21:21;;;;;;;4.88;0.80;;;18.60;99.90;;;;;;4990490;28;20081;-75
2022/09/08 03:23:48;;;;;;;2.75;0.60;;;18.70;99.90;;;;;;4999221;28;20045;-75
2022/09/08 03:26:16;;;;;;;1.95;0.50;;;18.60;99.90;;;;;;4990484;28;20029;-75
2022/09/08 03:28:43;;;;;;;2.80;0.60;;;18.60;99.90;;;;;;4990978;28;20450;-75
2022/09/08 03:31:11;;;;;;;2.88;0.70;;;18.60;99.90;;;;;;4987516;28;20450;-76
2022/09/08 03:33:38;;;;;;;2.50;0.82;;;18.50;99.90;;;;;;4989986;28;20110;-74
2022/09/08 03:36:06;;;;;;;1.42;0.65;;;18.50;99.90;;;;;;4988275;28;20042;-74
2022/09/08 03:38:33;;;;;;;5.88;1.05;;;18.40;99.90;;;;;;4993099;28;20388;-74
2022/09/08 03:40:59;;;;;;;1.02;0.60;;;18.40;99.90;;;;;;4995050;28;20026;-75
2022/09/08 03:43:25;;;;;;;2.70;0.52;;;18.50;99.90;;;;;;4995821;28;20030;-74
2022/09/08 03:45:50;;;;;;;1.15;0.70;;;18.40;99.90;;;;;;4994679;28;20030;-74
2022/09/08 03:48:16;;;;;;;1.30;0.60;;;18.40;99.90;;;;;;4993753;28;20042;-75
2022/09/08 03:50:42;;;;;;;1.05;0.50;;;18.40;99.90;;;;;;5009251;28;20030;-75
2022/09/08 03:53:09;;;;;;;2.05;0.50;;;18.40;99.90;;;;;;4990611;28;20105;-75
2022/09/08 03:55:39;;;;;;;2.15;0.55;;;18.40;99.90;;;;;;4993192;28;20106;-75
2022/09/08 03:58:05;;;;;;;1.85;0.50;;;18.40;99.90;;;;;;5005632;28;20550;-75
2022/09/08 04:00:30;;;;;;;2.58;0.50;;;18.40;99.90;;;;;;4998259;28;20021;-74
2022/09/08 04:02:56;;;;;;;0.98;0.47;;;18.30;99.90;;;;;;4989934;28;20080;-74
2022/09/08 04:05:22;;;;;;;8.52;1.08;;;18.30;99.90;;;;;;4990972;28;20034;-74
2022/09/08 04:07:48;;;;;;;3.28;1.25;;;18.30;99.90;;;;;;4992439;28;20030;-74
2022/09/08 04:10:15;;;;;;;5.35;0.70;;;18.40;99.90;;;;;;4992241;28;20050;-75
2022/09/08 04:12:41;;;;;;;3.97;0.60;;;18.30;99.90;;;;;;4988781;28;20092;-74
2022/09/08 04:15:08;;;;;;;0.82;0.50;;;18.30;99.90;;;;;;4992904;28;20038;-74
2022/09/08 04:17:35;;;;;;;0.77;0.40;;;18.30;99.90;;;;;;4992850;28;20030;-74
2022/09/08 04:20:02;;;;;;;2.17;0.60;;;18.30;99.90;;;;;;4990491;28;20050;-74
2022/09/08 04:22:28;;;;;;;1.35;0.70;;;18.30;99.90;;;;;;4989787;28;20033;-75
2022/09/08 04:24:53;;;;;;;0.68;0.50;;;18.20;99.90;;;;;;4991528;28;20113;-75
2022/09/08 04:27:19;;;;;;;1.00;0.70;;;18.20;99.90;;;;;;4992961;28;20053;-75
2022/09/08 04:29:45;;;;;;;2.75;1.15;;;18.30;99.90;;;;;;4988266;28;20023;-74
2022/09/08 04:32:11;;;;;;;0.95;0.40;;;18.20;99.90;;;;;;4993124;28;20027;-74
2022/09/08 04:34:36;;;;;;;7.65;0.90;;;18.20;99.90;;;;;;5008657;28;20033;-74
2022/09/08 04:37:04;;;;;;;2.38;0.68;;;18.20;99.90;;;;;;5009374;28;20038;-75
2022/09/08 04:39:30;;;;;;;1.73;0.60;;;18.20;99.90;;;;;;4999573;28;20038;-75
2022/09/08 04:41:56;;;;;;;0.88;0.60;;;18.20;99.90;;;;;;4989034;28;20026;-75
2022/09/08 04:44:22;;;;;;;1.10;0.57;;;18.20;99.90;;;;;;4994620;28;20053;-76
2022/09/08 04:46:48;;;;;;;0.55;0.55;;;18.10;99.90;;;;;;4994878;28;20089;-75
2022/09/08 04:49:14;;;;;;;1.35;0.70;;;18.10;99.90;;;;;;4993808;28;20026;-75
2022/09/08 04:51:40;;;;;;;1.17;0.60;;;18.10;99.90;;;;;;5010923;28;20030;-75
2022/09/08 04:54:06;;;;;;;0.77;0.65;;;18.10;99.90;;;;;;5012504;28;20018;-76
2022/09/08 04:56:32;;;;;;;1.67;0.60;;;18.10;99.90;;;;;;4986503;28;20011;-74
2022/09/08 04:59:00;;;;;;;2.17;0.80;;;18.10;99.90;;;;;;4991819;28;20022;-73
2022/09/08 05:01:31;;;;;;;1.58;0.65;;;18.10;99.90;;;;;;4991637;28;20056;-75
2022/09/08 05:04:00;;;;;;;1.88;0.70;;;18.10;99.90;;;;;;4987750;28;20118;-75
2022/09/08 05:06:27;;;;;;;1.55;0.93;;;18.10;99.90;;;;;;4982689;28;20101;-75
2022/09/08 05:08:55;;;;;;;1.77;0.80;;;18.10;99.90;;;;;;4986815;28;20026;-74
2022/09/08 05:11:21;;;;;;;2.13;1.17;;;18.10;99.90;;;;;;4990621;28;20033;-75
2022/09/08 05:13:49;;;;;;;0.88;0.60;;;18.10;99.90;;;;;;4989707;28;20432;-75
2022/09/08 05:16:17;;;;;;;1.00;0.60;;;18.10;99.90;;;;;;5005969;28;20467;-75
2022/09/08 05:18:47;;;;;;;1.30;0.60;;;18.10;99.90;;;;;;4987692;28;20038;-75
2022/09/08 05:21:13;;;;;;;1.30;0.80;;;18.00;99.90;;;;;;4992292;28;20026;-66
2022/09/08 05:23:38;;;;;;;1.17;0.52;;;18.10;99.90;;;;;;4984532;28;20022;-66
2022/09/08 05:26:07;;;;;;;1.35;0.43;;;18.10;99.90;;;;;;4991780;28;20027;-66
2022/09/08 05:28:36;;;;;;;0.73;0.50;;;18.40;99.90;;;;;;4989046;28;20022;-65
2022/09/08 05:31:02;;;;;;;2.60;0.80;;;18.40;99.90;;;;;;5004695;28;20463;-66
2022/09/08 05:33:29;;;;;;;1.08;0.57;;;18.40;99.90;;;;;;4981287;28;20483;-66
2022/09/08 05:35:54;;;;;;;0.90;0.60;;;18.40;99.90;;;;;;4989697;28;20026;-66
2022/09/08 05:38:20;;;;;;;2.28;0.60;;;18.40;99.90;;;;;;5004986;28;20691;-66
2022/09/08 05:40:46;;;;;;;1.13;0.60;;;18.40;99.90;;;;;;4993153;28;20041;-66
2022/09/08 05:43:13;;;;;;;1.75;0.75;;;18.40;99.90;;;;;;4996720;28;20488;-65
2022/09/08 05:45:47;;;;;;;1.83;0.70;;;18.30;99.90;;;;;;4992992;28;20030;-66
2022/09/08 05:48:13;;;;;;;2.85;0.80;;;18.30;99.90;;;;;;4991958;28;20509;-66
2022/09/08 05:50:46;;;;;;;2.20;0.70;;;18.30;99.90;;;;;;4987833;28;20057;-73
2022/09/08 05:53:13;;;;;;;2.88;0.70;;;18.30;99.90;;;;;;4983752;28;20033;-74
2022/09/08 05:55:40;;;;;;;3.05;1.13;;;18.20;99.90;;;;;;4987470;28;20132;-73
2022/09/08 05:58:07;;;;;;;1.90;1.13;;;18.20;99.90;;;;;;4992687;28;20022;-70
2022/09/08 06:00:33;;;;;;;2.53;1.10;;;18.20;99.90;;;;;;4986068;28;20015;-74
2022/09/08 06:02:59;;;;;;;3.45;1.65;;;18.20;99.90;;;;;;4982828;28;20084;-74
2022/09/08 06:05:25;;;;;;;3.83;1.80;;;18.20;99.90;;;;;;4983763;28;20454;-74
2022/09/08 06:07:50;;;;;;;6.28;2.45;;;18.20;99.90;;;;;;4991211;28;20084;-74
2022/09/08 06:10:17;;;;;;;8.23;3.58;;;18.20;99.90;;;;;;4990523;28;20022;-74
2022/09/08 06:12:44;;;;;;;6.00;3.63;;;18.20;99.90;;;;;;4989280;28;20042;-73
2022/09/08 06:15:10;;;;;;;6.82;3.53;;;18.10;99.90;;;;;;4989568;28;20030;-74
2022/09/08 06:17:36;;;;;;;2.88;1.70;;;18.10;99.90;;;;;;4986468;28;20034;-74
2022/09/08 06:20:03;;;;;;;4.38;1.55;;;18.10;99.90;;;;;;4987145;28;20052;-74
2022/09/08 06:22:32;;;;;;;3.13;1.70;;;18.10;99.90;;;;;;4990305;28;20022;-75
2022/09/08 06:24:57;;;;;;;4.63;3.03;;;18.20;99.90;;;;;;4983258;28;20042;-75
2022/09/08 06:27:48;;;;;;;5.47;3.53;;;18.20;99.90;;;;;;4987799;28;20022;-73
2022/09/08 06:30:18;;;;;;;4.50;2.60;;;18.20;99.90;;;;;;4982071;28;20022;-73
2022/09/08 06:32:52;;;;;;;2.88;1.48;;;18.20;99.90;;;;;;4986208;28;20035;-74
2022/09/08 06:35:42;;;;;;;3.20;1.75;;;18.20;99.90;;;;;;4983207;28;20534;-75
2022/09/08 06:38:33;;;;;;;2.13;1.15;;;18.20;99.90;;;;;;4987065;28;20027;-74
2022/09/08 06:41:12;;;;;;;1.17;0.80;;;18.10;99.90;;;;;;4988246;28;20022;-75
2022/09/08 06:43:51;;;;;;;1.48;1.00;;;18.10;99.90;;;;;;5003419;28;21757;-76
2022/09/08 06:46:26;;;;;;;1.88;1.10;;;18.10;99.90;;;;;;4986978;28;20027;-75
2022/09/08 06:48:53;;;;;;;1.63;0.82;;;18.00;99.90;;;;;;4986490;28;20078;-75
2022/09/08 06:51:37;;;;;;;2.90;1.10;;;18.00;99.90;;;;;;4986751;28;20577;-75
2022/09/08 06:54:30;;;;;;;2.03;1.00;;;18.00;99.90;;;;;;4984030;28;20026;-75
2022/09/08 06:57:13;;;;;;;1.70;0.95;;;18.00;99.90;;;;;;4979839;28;20511;-75
2022/09/08 06:59:39;;;;;;;1.77;0.80;;;18.00;99.90;;;;;;4982746;28;20042;-75
2022/09/08 07:02:07;;;;;;;2.58;1.00;;;18.00;99.90;;;;;;4979596;28;20283;-75
2022/09/08 07:04:59;;;;;;;1.95;0.80;;;17.90;99.90;;;;;;4998731;28;20027;-75
2022/09/08 07:07:37;;;;;;;1.42;0.65;;;17.90;99.90;;;;;;4985980;28;20050;-74
2022/09/08 07:10:11;;;;;;;1.45;0.45;;;17.70;99.90;;;;;;4981998;28;20498;-75
2022/09/08 07:13:04;;;;;;;2.78;0.90;;;17.50;99.90;;;;;;4983498;28;20121;-75
2022/09/08 07:16:11;;;;;;;3.35;0.73;;;17.40;99.90;;;;;;4988010;28;20026;-75
2022/09/08 07:18:57;;;;;;;2.70;0.70;;;17.40;99.90;;;;;;4971786;28;20052;-75
2022/09/08 07:21:29;;;;;;;2.55;0.80;;;17.40;99.90;;;;;;4984628;28;20085;-74
2022/09/08 07:23:59;;;;;;;1.20;0.63;;;17.30;99.90;;;;;;4988200;28;20495;-74
2022/09/08 07:26:36;;;;;;;3.38;0.80;;;17.40;99.90;;;;;;4981071;28;20022;-75
2022/09/08 07:29:09;;;;;;;1.85;0.90;;;17.40;99.90;;;;;;4988709;28;20487;-75
2022/09/08 07:31:43;;;;;;;1.63;0.82;;;17.50;99.90;;;;;;4989077;28;20528;-75
2022/09/08 07:34:16;;;;;;;1.50;0.43;;;17.50;99.90;;;;;;4987342;28;20030;-76
2022/09/08 07:36:47;;;;;;;1.60;0.40;;;17.60;99.90;;;;;;4988954;28;20022;-76
2022/09/08 07:39:36;;;;;;;1.08;0.77;;;17.70;99.90;;;;;;4987747;28;20058;-75
2022/09/08 07:42:04;;;;;;;1.00;0.77;;;17.80;99.90;;;;;;4999750;28;20555;-75
2022/09/08 07:44:30;;;;;;;2.05;0.68;;;17.80;99.90;;;;;;4987903;28;20043;-75
2022/09/08 07:47:10;;;;;;;1.80;0.88;;;17.90;99.90;;;;;;4989548;28;20037;-75
2022/09/08 07:49:49;;;;;;;1.70;0.90;;;17.90;99.90;;;;;;4985840;28;20565;-76
2022/09/08 07:52:17;;;;;;;1.20;0.45;;;18.00;99.90;;;;;;4981963;28;20026;-75
2022/09/08 07:55:12;;;;;;;0.85;0.63;;;18.00;99.90;;;;;;4986520;28;20034;-75
2022/09/08 07:57:40;;;;;;;1.50;0.60;;;18.00;99.90;;;;;;4987478;28;20034;-75
2022/09/08 08:00:09;;;;;;;1.17;0.60;;;18.10;99.90;;;;;;4986595;28;20033;-75
2022/09/08 08:03:09;;;;;;;2.28;0.68;;;18.20;99.90;;;;;;4986397;28;20479;-75
2022/09/08 08:05:48;;;;;;;2.17;0.80;;;18.20;99.90;;;;;;4985092;28;20077;-75
2022/09/08 08:08:20;;;;;;;1.85;0.70;;;18.40;99.90;;;;;;5002147;28;20073;-74
2022/09/08 08:11:03;;;;;;;1.75;0.80;;;18.40;99.90;;;;;;4983549;28;20165;-75
2022/09/08 08:13:48;;;;;;;2.95;0.70;;;18.50;99.90;;;;;;4981324;28;20022;-75
2022/09/08 08:16:17;;;;;;;1.45;0.77;;;18.60;99.90;;;;;;4985575;28;20034;-75
2022/09/08 08:18:51;;;;;;;7.53;0.98;;;18.60;99.90;;;;;;5003616;28;20038;-75
2022/09/08 08:21:16;;;;;;;;;;;18.70;99.90;;;;;;4987733;28;20038;-76
2022/09/08 08:24:09;;;;;;;1.75;0.50;;;18.70;99.90;;;;;;5025472;23;19933;-73
2022/09/08 08:27:10;;;;;;;1.55;0.80;;;18.80;99.90;;;;;;5007119;28;20070;-73
2022/09/08 08:30:02;;;;;;;1.85;0.77;;;18.90;99.90;;;;;;4994905;28;20054;-73
2022/09/08 08:32:36;;;;;;;3.60;0.55;;;19.00;99.90;;;;;;5023791;28;20405;-74
2022/09/08 08:35:18;;;;;;;5.63;1.15;;;19.10;99.90;;;;;;4990492;28;20103;-74
2022/09/08 08:37:47;;;;;;;1.58;0.80;;;19.20;99.90;;;;;;4999424;28;21013;-74
2022/09/08 08:40:36;;;;;;;0.77;0.65;;;19.30;99.90;;;;;;4987947;28;20026;-74
2022/09/08 08:43:14;;;;;;;2.40;0.60;;;19.30;99.90;;;;;;4985346;28;20105;-73
2022/09/08 08:46:00;;;;;;;1.92;0.73;;;19.30;99.90;;;;;;4982941;28;20062;-73
2022/09/08 08:48:44;;;;;;;1.40;1.17;;;19.30;99.90;;;;;;4980997;28;20153;-73
2022/09/08 08:51:44;;;;;;;2.95;1.23;;;19.40;99.90;;;;;;4994949;28;20061;-74
2022/09/08 08:54:28;;;;;;;1.55;0.80;;;19.40;99.90;;;;;;4986485;28;20069;-73
2022/09/08 08:57:25;;;;;;;3.28;1.08;;;19.40;99.90;;;;;;4987345;28;20030;-73
2022/09/08 09:00:09;;;;;;;1.83;0.88;;;19.50;99.90;;;;;;4983994;28;20038;-73
2022/09/08 09:03:23;;;;;;;2.47;0.80;;;19.50;99.90;;;;;;5002100;28;20038;-73
2022/09/08 09:06:03;;;;;;;1.40;0.80;;;19.60;99.90;;;;;;4981054;28;20132;-74
2022/09/08 09:09:08;;;;;;;2.83;1.00;;;19.70;99.90;;;;;;4987135;28;20037;-74
2022/09/08 09:11:40;;;;;;;1.88;0.85;;;19.70;99.90;;;;;;4984883;28;20806;-73
2022/09/08 09:14:27;;;;;;;1.17;0.75;;;19.70;99.90;;;;;;4983913;28;20037;-73
2022/09/08 09:17:14;;;;;;;1.42;0.70;;;19.70;99.90;;;;;;4983624;28;20049;-73
2022/09/08 09:19:55;;;;;;;3.70;1.00;;;19.70;99.90;;;;;;4983053;28;20034;-73
2022/09/08 09:22:46;;;;;;;2.33;0.80;;;19.80;99.90;;;;;;4987843;28;20088;-74
2022/09/08 09:25:35;;;;;;;3.92;0.85;;;20.00;99.90;;;;;;4991163;28;20517;-74
2022/09/08 09:28:03;;;;;;;3.65;0.70;;;20.10;99.90;;;;;;4985938;28;20038;-75
2022/09/08 09:30:29;;;;;;;4.00;1.15;;;20.20;99.90;;;;;;4989009;28;20033;-74
2022/09/08 09:33:10;;;;;;;1.05;0.80;;;20.30;99.90;;;;;;4990264;28;20018;-74
2022/09/08 09:35:54;;;;;;;2.67;1.08;;;20.40;99.90;;;;;;4988441;28;20037;-74
2022/09/08 09:39:00;;;;;;;1.95;0.82;;;20.60;99.90;;;;;;4985879;28;20047;-74
2022/09/08 09:41:45;;;;;;;1.40;0.85;;;20.80;99.90;;;;;;4990231;28;20034;-74
2022/09/08 09:44:38;;;;;;;2.10;0.88;;;20.90;99.90;;;;;;5006041;28;21381;-74
2022/09/08 09:47:28;;;;;;;4.28;0.90;;;20.90;99.90;;;;;;4982907;28;20033;-75
2022/09/08 09:50:12;;;;;;;3.20;0.93;;;20.90;99.90;;;;;;4984167;28;20033;-74
2022/09/08 09:52:56;;;;;;;2.05;0.85;;;20.60;99.90;;;;;;4980375;28;20398;-76
2022/09/08 09:56:04;;;;;;;3.35;0.98;;;20.50;99.90;;;;;;4991731;28;20031;-77
2022/09/08 09:58:38;;;;;;;2.33;0.90;;;20.40;99.90;;;;;;4982358;28;20471;-73
2022/09/08 10:01:42;;;;;;;4.47;1.10;;;20.20;99.90;;;;;;4983219;28;20403;-74
2022/09/08 10:04:32;;;;;;;3.30;1.00;;;20.10;99.90;;;;;;4981201;28;20026;-73
2022/09/08 10:07:36;;;;;;;2.88;1.23;;;20.00;99.90;;;;;;4987759;28;20383;-74
2022/09/08 10:10:16;;;;;;;2.25;0.70;;;20.00;99.90;;;;;;4988333;28;20777;-75
2022/09/08 10:13:13;;;;;;;1.88;0.98;;;19.90;99.90;;;;;;4983048;28;20030;-75
2022/09/08 10:15:51;;;;;;;3.85;0.95;;;19.80;99.90;;;;;;4987602;28;20023;-76
2022/09/08 10:18:17;;;;;;;2.83;1.00;;;19.80;99.90;;;;;;4988051;28;20509;-76
2022/09/08 10:20:50;;;;;;;1.10;0.70;;;19.80;99.90;;;;;;4987037;28;20050;-75
2022/09/08 10:23:51;;;;;;;5.38;0.98;;;19.80;99.90;;;;;;4989434;28;20065;-74
2022/09/08 10:26:35;;;;;;;0.80;0.75;;;19.90;99.90;;;;;;4998780;28;20031;-75
2022/09/08 10:29:17;;;;;;;2.05;1.08;;;20.00;99.90;;;;;;4989932;28;20053;-76
2022/09/08 10:31:57;;;;;;;1.15;0.90;;;20.10;99.90;;;;;;4980551;28;20026;-75
2022/09/08 10:34:45;;;;;;;1.55;0.73;;;20.30;99.90;;;;;;4987257;28;20036;-76
2022/09/08 10:37:41;;;;;;;1.58;0.60;;;20.50;99.90;;;;;;4999900;28;20035;-75
2022/09/08 10:40:18;;;;;;;3.22;0.57;;;20.60;99.90;;;;;;4982667;28;20027;-74
2022/09/08 10:42:47;;;;;;;3.17;0.70;;;20.80;99.90;;;;;;4984390;28;20033;-75
2022/09/08 10:45:31;;;;;;;1.17;0.90;;;20.90;99.90;;;;;;4985427;28;20029;-74
2022/09/08 10:48:35;;;;;;;2.25;0.75;;;21.10;99.90;;;;;;4988420;28;20435;-74
2022/09/08 10:51:36;;;;;;;1.90;0.60;;;21.40;99.90;;;;;;4979446;28;20042;-77
2022/09/08 10:54:14;;;;;;;1.15;0.70;;;21.60;99.90;;;;;;4989383;28;20574;-77
2022/09/08 10:56:42;;;;;;;1.20;0.60;;;21.80;99.90;;;;;;5004157;28;20096;-78
2022/09/08 10:59:29;;;;;;;1.33;0.60;;;21.90;99.90;;;;;;5006195;28;20066;-78
2022/09/08 11:02:12;;;;;;;1.17;0.68;;;22.00;99.90;;;;;;4984765;28;20014;-78
2022/09/08 11:04:47;;;;;;;1.95;0.63;;;22.10;99.90;;;;;;4992520;28;20018;-78
2022/09/08 11:07:44;;;;;;;3.53;0.95;;;22.10;99.90;;;;;;4991549;28;20051;-78
2022/09/08 11:10:22;;;;;;;1.63;0.60;;;22.20;99.90;;;;;;4986020;28;20122;-78
2022/09/08 11:13:26;;;;;;;1.15;0.90;;;22.30;99.90;;;;;;4991891;28;20030;-77
2022/09/08 11:16:19;;;;;;;1.13;0.50;;;22.30;99.90;;;;;;4991011;28;20042;-79
2022/09/08 11:19:18;;;;;;;2.20;0.90;;;22.30;99.90;;;;;;4980946;28;20034;-77
2022/09/08 11:22:09;;;;;;;1.10;0.55;;;22.40;99.90;;;;;;4988630;28;20092;-79
2022/09/08 11:24:57;;;;;;;2.47;0.80;;;22.40;99.90;;;;;;4987715;28;20121;-78
2022/09/08 11:27:43;;;;;;;1.77;0.82;;;22.50;99.90;;;;;;4989791;28;20031;-77
2022/09/08 11:30:34;;;;;;;1.75;0.70;;;22.50;99.50;;;;;;4990455;28;20027;-79
2022/09/08 11:33:12;;;;;;;1.67;0.60;;;22.50;99.60;;;;;;4993123;28;20023;-78
2022/09/08 11:36:06;;;;;;;1.95;0.50;;;22.50;99.70;;;;;;4995994;28;20677;-77
2022/09/08 11:38:46;;;;;;;1.07;0.53;;;22.40;99.90;;;;;;4988383;28;20117;-76
2022/09/08 11:41:15;;;;;;;2.72;0.95;;;22.30;99.90;;;;;;4986640;28;20023;-76
2022/09/08 11:44:03;;;;;;;3.90;0.80;;;22.20;99.90;;;;;;4980609;28;20029;-77
2022/09/08 11:46:47;;;;;;;4.57;0.85;;;22.10;99.90;;;;;;4958704;28;20050;-77
2022/09/08 11:49:22;;;;;;;3.83;0.93;;;22.00;99.60;;;;;;4990236;28;20065;-77
2022/09/08 11:52:18;;;;;;;3.63;0.55;;;21.90;99.00;;;;;;4988309;28;20450;-77
2022/09/08 11:55:33;;;;;;;1.52;0.70;;;21.90;99.30;;;;;;4984447;28;20446;-78
2022/09/08 11:58:21;;;;;;;1.20;0.70;;;21.80;99.20;;;;;;4911583;28;20040;-77
2022/09/08 12:01:15;;;;;;;1.15;0.40;;;21.80;99.10;;;;;;4990541;28;20117;-75
2022/09/08 12:04:05;;;;;;;0.80;0.50;;;21.70;99.50;;;;;;4987682;28;20026;-77
2022/09/08 12:06:45;;;;;;;2.47;0.75;;;21.70;99.80;;;;;;4990580;28;20085;-77
2022/09/08 12:09:47;;;;;;;3.85;0.90;;;21.60;99.50;;;;;;4990323;28;20034;-77
2022/09/08 12:12:34;;;;;;;1.08;0.70;;;21.50;99.70;;;;;;4985386;28;20041;-76
2022/09/08 12:15:25;;;;;;;1.65;0.68;;;21.50;99.70;;;;;;4988466;28;20096;-75
2022/09/08 12:18:13;;;;;;;3.22;0.68;;;21.50;99.90;;;;;;4963393;28;20466;-76
2022/09/08 12:21:06;;;;;;;2.30;0.80;;;21.60;99.90;;;;;;4989655;28;20045;-79
2022/09/08 12:24:02;;;;;;;4.85;0.60;;;21.60;99.80;;;;;;4978949;28;20133;-77
2022/09/08 12:26:42;;;;;;;0.80;0.60;;;21.60;99.70;;;;;;4980872;28;20034;-77
2022/09/08 12:29:55;;;;;;;1.67;0.75;;;21.70;99.60;;;;;;4991439;28;20026;-77
2022/09/08 12:32:53;;;;;;;1.27;0.57;;;21.90;99.10;;;;;;4974105;28;20054;-77
2022/09/08 12:35:43;;;;;;;1.75;0.73;;;22.10;99.10;;;;;;4976047;28;20030;-77
2022/09/08 12:38:36;;;;;;;3.47;0.68;;;22.20;98.40;;;;;;4992519;28;20026;-78
2022/09/08 12:41:29;;;;;;;4.07;0.82;;;22.30;98.10;;;;;;4986472;28;20105;-77
2022/09/08 12:44:11;;;;;;;5.97;0.60;;;22.30;97.90;;;;;;4984929;28;20026;-75
2022/09/08 12:46:49;;;;;;;0.98;0.50;;;22.30;97.70;;;;;;4990002;28;20462;-76
2022/09/08 12:49:34;;;;;;;2.05;0.63;;;22.30;97.70;;;;;;4991541;28;20034;-77
2022/09/08 12:52:02;;;;;;;2.33;0.77;;;22.30;98.00;;;;;;4994314;28;20030;-76
2022/09/08 12:54:49;;;;;;;2.42;1.08;;;22.30;98.20;;;;;;4983869;28;20037;-77
2022/09/08 12:57:41;;;;;;;4.90;0.80;;;22.30;98.00;;;;;;4989254;28;20572;-77
2022/09/08 13:00:12;;;;;;;2.85;0.63;;;22.30;98.00;;;;;;4988004;28;20022;-76
2022/09/08 13:02:59;;;;;;;4.30;0.80;;;22.20;97.50;;;;;;4985360;28;20154;-77
2022/09/08 13:05:24;;;;;;;2.47;0.77;;;22.20;97.60;;;;;;4998235;28;20113;-75
2022/09/08 13:07:56;;;;;;;4.60;0.70;;;22.30;96.90;;;;;;5000731;28;20128;-74
2022/09/08 13:10:28;;;;;;;0.82;0.50;;;22.30;96.40;;;;;;4982103;28;20399;-77
2022/09/08 13:13:15;;;;;;;1.23;0.68;;;22.30;95.50;;;;;;4986496;28;20039;-77
2022/09/08 13:15:59;;;;;;;1.75;0.45;;;22.30;96.10;;;;;;4983242;28;20042;-75
2022/09/08 13:18:51;;;;;;;1.83;0.52;;;22.30;95.40;;;;;;4983800;28;20042;-74
2022/09/08 13:21:35;;;;;;;0.77;0.45;;;22.30;95.20;;;;;;4978583;28;20065;-77
2022/09/08 13:24:20;;;;;;;1.50;0.50;;;22.30;95.20;;;;;;4988956;28;20030;-77
2022/09/08 13:27:26;;;;;;;2.75;0.60;;;22.30;95.70;;;;;;4987807;28;20105;-76
2022/09/08 13:30:07;;;;;;;0.68;0.40;;;22.40;96.20;;;;;;4988668;28;20448;-74
2022/09/08 13:33:04;;;;;;;4.13;0.85;;;22.40;96.00;;;;;;4999473;28;20026;-76
2022/09/08 13:35:46;;;;;;;1.33;0.50;;;22.40;96.20;;;;;;4982493;28;20027;-77
2022/09/08 13:38:26;;;;;;;0.63;0.57;;;22.50;95.10;;;;;;4986865;28;20031;-76